createdAt,value
2023-04-17T00:00:14.334Z,100.00
2023-04-17T00:02:43.399Z,100.00
2023-04-17T00:05:11.286Z,100.00
2023-04-17T00:07:41.361Z,100.00
2023-04-17T00:10:10.977Z,100.00
2023-04-17T00:12:39.054Z,100.00
2023-04-17T00:15:08.678Z,100.00
2023-04-17T00:17:36.634Z,100.00
2023-04-17T00:20:08.194Z,100.00
2023-04-17T00:22:36.142Z,100.00
2023-04-17T00:25:06.238Z,100.00
2023-04-17T00:27:33.957Z,100.00
2023-04-17T00:30:02.707Z,100.00
2023-04-17T00:32:30.638Z,100.00
2023-04-17T00:34:58.346Z,100.00
2023-04-17T00:37:26.272Z,100.00
2023-04-17T00:39:53.906Z,100.00
2023-04-17T00:42:22.897Z,100.00
2023-04-17T00:44:50.601Z,100.00
2023-04-17T00:47:18.826Z,100.00
2023-04-17T00:49:47.405Z,100.00
2023-04-17T00:52:19.819Z,100.00
2023-04-17T00:54:48.964Z,100.00
2023-04-17T00:57:16.719Z,100.00
2023-04-17T00:59:46.935Z,100.00
2023-04-17T01:02:15.005Z,100.00
2023-04-17T01:04:42.993Z,100.00
2023-04-17T01:07:11.058Z,100.00
2023-04-17T01:09:39.579Z,100.00
2023-04-17T01:12:18.544Z,100.00
2023-04-17T01:14:49.420Z,100.00
2023-04-17T01:17:19.552Z,100.00
2023-04-17T01:19:48.243Z,100.00
2023-04-17T01:22:17.301Z,100.00
2023-04-17T01:24:46.748Z,100.00
2023-04-17T01:27:15.601Z,100.00
2023-04-17T01:29:46.096Z,100.00
2023-04-17T01:32:13.854Z,100.00
2023-04-17T01:34:42.271Z,100.00
2023-04-17T01:37:10.495Z,100.00
2023-04-17T01:39:38.260Z,100.00
2023-04-17T01:42:07.979Z,100.00
2023-04-17T01:44:37.513Z,100.00
2023-04-17T01:47:05.378Z,100.00
2023-04-17T01:49:33.955Z,100.00
2023-04-17T01:52:01.801Z,100.00
2023-04-17T01:54:29.473Z,100.00
2023-04-17T01:56:57.856Z,100.00
2023-04-17T01:59:27.231Z,100.00
2023-04-17T02:01:56.492Z,100.00
2023-04-17T02:04:24.504Z,100.00
2023-04-17T02:06:53.396Z,100.00
2023-04-17T02:09:21.445Z,100.00
2023-04-17T02:11:49.524Z,100.00
2023-04-17T02:14:19.980Z,100.00
2023-04-17T02:16:50.095Z,100.00
2023-04-17T02:19:18.028Z,100.00
2023-04-17T02:21:45.708Z,100.00
2023-04-17T02:24:13.818Z,100.00
2023-04-17T02:26:41.547Z,100.00
2023-04-17T02:29:09.836Z,100.00
2023-04-17T02:31:37.853Z,100.00
2023-04-17T02:34:07.324Z,100.00
2023-04-17T02:36:35.629Z,100.00
2023-04-17T02:39:05.471Z,100.00
2023-04-17T02:41:33.516Z,100.00
2023-04-17T02:47:02.910Z,100.00
2023-04-17T02:49:34.900Z,100.00
2023-04-17T02:52:02.749Z,100.00
2023-04-17T02:54:30.675Z,100.00
2023-04-17T02:56:59.256Z,100.00
2023-04-17T02:59:29.669Z,100.00
2023-04-17T03:01:59.977Z,100.00
2023-04-17T03:04:28.900Z,100.00
2023-04-17T03:06:59.239Z,100.00
2023-04-17T03:09:27.576Z,100.00
2023-04-17T03:11:55.395Z,100.00
2023-04-17T03:14:23.190Z,100.00
2023-04-17T03:16:51.216Z,100.00
2023-04-17T03:19:19.191Z,100.00
2023-04-17T03:21:47.017Z,100.00
2023-04-17T03:24:16.246Z,100.00
2023-04-17T03:26:44.535Z,100.00
2023-04-17T03:29:18.850Z,100.00
2023-04-17T03:31:46.758Z,100.00
2023-04-17T03:34:14.549Z,100.00
2023-04-17T03:36:43.112Z,100.00
2023-04-17T03:39:11.370Z,100.00
2023-04-17T03:41:40.998Z,100.00
2023-04-17T03:44:10.027Z,100.00
2023-04-17T03:46:38.810Z,100.00
2023-04-17T03:49:07.051Z,100.00
2023-04-17T03:51:35.291Z,100.00
2023-04-17T03:54:12.240Z,100.00
2023-04-17T03:56:43.202Z,100.00
2023-04-17T03:59:12.208Z,100.00
2023-04-17T04:01:46.554Z,100.00
2023-04-17T04:04:20.930Z,100.00
2023-04-17T04:06:52.729Z,100.00
2023-04-17T04:09:21.719Z,100.00
2023-04-17T04:11:51.426Z,100.00
2023-04-17T04:14:19.267Z,100.00
2023-04-17T04:16:49.352Z,100.00
2023-04-17T04:19:17.104Z,100.00
2023-04-17T04:21:45.623Z,100.00
2023-04-17T04:24:15.223Z,100.00
2023-04-17T04:26:44.262Z,100.00
2023-04-17T04:29:14.530Z,100.00
2023-04-17T04:31:56.890Z,100.00
2023-04-17T04:34:30.789Z,100.00
2023-04-17T04:36:58.546Z,100.00
2023-04-17T04:39:37.900Z,100.00
2023-04-17T04:42:09.844Z,100.00
2023-04-17T04:45:01.148Z,100.00
2023-04-17T04:47:31.271Z,100.00
2023-04-17T04:49:59.082Z,100.00
2023-04-17T04:52:27.789Z,100.00
2023-04-17T04:54:59.732Z,100.00
2023-04-17T04:57:27.969Z,100.00
2023-04-17T05:00:01.593Z,100.00
2023-04-17T05:02:55.366Z,100.00
2023-04-17T05:05:26.377Z,100.00
2023-04-17T05:07:55.464Z,100.00
2023-04-17T05:10:27.111Z,100.00
2023-04-17T05:13:00.167Z,100.00
2023-04-17T05:15:29.431Z,100.00
2023-04-17T05:17:57.436Z,100.00
2023-04-17T05:20:27.205Z,100.00
2023-04-17T05:22:58.728Z,100.00
2023-04-17T05:25:26.648Z,100.00
2023-04-17T05:27:56.637Z,100.00
2023-04-17T05:30:24.423Z,100.00
2023-04-17T05:33:03.525Z,100.00
2023-04-17T05:35:41.876Z,100.00
2023-04-17T05:38:10.956Z,100.00
2023-04-17T05:40:38.816Z,100.00
2023-04-17T05:43:08.776Z,100.00
2023-04-17T05:45:38.187Z,100.00
2023-04-17T05:48:11.092Z,100.00
2023-04-17T05:50:39.105Z,100.00
2023-04-17T05:53:08.503Z,100.00
2023-04-17T05:55:42.533Z,100.00
2023-04-17T06:00:44.965Z,100.00
2023-04-17T06:03:18.189Z,100.00
2023-04-17T06:05:48.252Z,100.00
2023-04-17T06:08:17.396Z,100.00
2023-04-17T06:10:45.836Z,100.00
2023-04-17T06:13:13.956Z,100.00
2023-04-17T06:15:46.300Z,100.00
2023-04-17T06:18:18.035Z,100.00
2023-04-17T06:20:46.023Z,100.00
2023-04-17T06:23:15.974Z,100.00
2023-04-17T06:25:44.213Z,100.00
2023-04-17T06:28:12.386Z,100.00
2023-04-17T06:30:40.846Z,100.00
2023-04-17T06:33:09.381Z,100.00
2023-04-17T06:35:39.316Z,100.00
2023-04-17T06:38:18.263Z,100.00
2023-04-17T06:40:46.615Z,100.00
2023-04-17T06:43:17.340Z,100.00
2023-04-17T06:45:45.581Z,100.00
2023-04-17T06:48:13.533Z,100.00
2023-04-17T06:50:43.537Z,100.00
2023-04-17T06:53:11.442Z,100.00
2023-04-17T06:55:39.511Z,100.00
2023-04-17T06:58:09.051Z,100.00
2023-04-17T07:00:37.150Z,100.00
2023-04-17T07:03:06.470Z,100.00
2023-04-17T07:05:34.276Z,100.00
2023-04-17T07:08:03.693Z,100.00
2023-04-17T07:10:32.056Z,100.00
2023-04-17T07:12:59.776Z,100.00
2023-04-17T07:15:30.447Z,100.00
2023-04-17T07:17:58.412Z,100.00
2023-04-17T07:20:26.543Z,100.00
2023-04-17T07:22:55.538Z,100.00
2023-04-17T07:25:25.241Z,100.00
2023-04-17T07:27:54.668Z,100.00
2023-04-17T07:30:22.589Z,100.00
2023-04-17T07:32:51.184Z,100.00
2023-04-17T07:35:19.201Z,100.00
2023-04-17T07:37:46.990Z,100.00
2023-04-17T07:40:14.893Z,100.00
2023-04-17T07:42:44.448Z,100.00
2023-04-17T07:45:12.844Z,100.00
2023-04-17T07:47:40.574Z,100.00
2023-04-17T07:50:09.409Z,100.00
2023-04-17T07:52:37.301Z,100.00
2023-04-17T07:55:07.130Z,100.00
2023-04-17T07:57:34.923Z,100.00
2023-04-17T08:00:07.193Z,100.00
2023-04-17T08:02:41.546Z,100.00
2023-04-17T08:05:10.612Z,100.00
2023-04-17T08:07:38.824Z,100.00
2023-04-17T08:10:07.617Z,100.00
2023-04-17T08:12:35.547Z,100.00
2023-04-17T08:15:05.189Z,100.00
2023-04-17T08:17:33.393Z,100.00
2023-04-17T08:20:02.309Z,100.00
2023-04-17T08:22:30.372Z,100.00
2023-04-17T08:24:58.678Z,100.00
2023-04-17T08:27:27.008Z,100.00
2023-04-17T08:29:56.518Z,100.00
2023-04-17T08:32:25.663Z,100.00
2023-04-17T08:34:54.314Z,100.00
2023-04-17T08:37:24.093Z,100.00
2023-04-17T08:39:53.776Z,100.00
2023-04-17T08:42:22.231Z,100.00
2023-04-17T08:44:49.969Z,100.00
2023-04-17T08:47:19.474Z,100.00
2023-04-17T08:49:50.442Z,100.00
2023-04-17T08:52:18.433Z,100.00
2023-04-17T08:54:47.898Z,100.00
2023-04-17T08:57:18.104Z,100.00
2023-04-17T08:59:47.175Z,100.00
2023-04-17T09:02:15.414Z,100.00
2023-04-17T09:04:47.229Z,100.00
2023-04-17T09:07:16.691Z,100.00
2023-04-17T09:09:49.094Z,100.00
2023-04-17T09:12:17.513Z,100.00
2023-04-17T09:14:45.794Z,100.00
2023-04-17T09:17:17.500Z,100.00
2023-04-17T09:20:06.450Z,100.00
2023-04-17T09:22:36.886Z,100.00
2023-04-17T09:25:05.362Z,100.00
2023-04-17T09:27:33.532Z,100.00
2023-04-17T09:30:02.642Z,100.00
2023-04-17T09:32:32.258Z,100.00
2023-04-17T09:35:01.505Z,100.00
2023-04-17T09:37:51.656Z,100.00
2023-04-17T09:40:21.905Z,100.00
2023-04-17T09:42:57.752Z,100.00
2023-04-17T09:45:29.568Z,100.00
2023-04-17T09:47:58.242Z,100.00
2023-04-17T09:50:26.346Z,100.00
2023-04-17T09:52:57.040Z,100.00
2023-04-17T09:55:27.180Z,100.00
2023-04-17T09:57:56.456Z,100.00
2023-04-17T10:00:27.314Z,100.00
2023-04-17T10:02:56.624Z,100.00
2023-04-17T10:05:27.298Z,100.00
2023-04-17T10:07:57.416Z,100.00
2023-04-17T10:10:26.482Z,100.00
2023-04-17T10:12:57.454Z,100.00
2023-04-17T10:15:27.441Z,100.00
2023-04-17T10:17:57.867Z,100.00
2023-04-17T10:20:39.614Z,100.00
2023-04-17T10:23:35.817Z,100.00
2023-04-17T10:26:36.487Z,100.00
2023-04-17T10:29:04.332Z,100.00
2023-04-17T10:32:09.453Z,100.00
2023-04-17T10:34:38.215Z,100.00
2023-04-17T10:37:06.242Z,100.00
2023-04-17T10:39:51.359Z,100.00
2023-04-17T10:42:21.138Z,100.00
2023-04-17T10:44:49.680Z,100.00
2023-04-17T10:47:21.501Z,100.00
2023-04-17T10:49:54.588Z,100.00
2023-04-17T10:52:42.248Z,100.00
2023-04-17T10:55:15.891Z,100.00
2023-04-17T10:58:02.537Z,100.00
2023-04-17T11:00:35.088Z,100.00
2023-04-17T11:03:04.064Z,100.00
2023-04-17T11:05:33.953Z,100.00
2023-04-17T11:08:02.049Z,100.00
2023-04-17T11:10:31.615Z,100.00
2023-04-17T11:12:59.487Z,100.00
2023-04-17T11:15:29.464Z,100.00
2023-04-17T11:17:58.145Z,100.00
2023-04-17T11:20:27.843Z,100.00
2023-04-17T11:22:56.142Z,100.00
2023-04-17T11:25:26.263Z,100.00
2023-04-17T11:27:59.160Z,100.00
2023-04-17T11:30:32.600Z,100.00
2023-04-17T11:33:01.369Z,100.00
2023-04-17T11:35:30.694Z,100.00
2023-04-17T11:38:11.333Z,100.00
2023-04-17T11:40:46.778Z,100.00
2023-04-17T11:43:16.649Z,100.00
2023-04-17T11:45:47.350Z,100.00
2023-04-17T11:48:16.467Z,100.00
2023-04-17T11:50:45.292Z,100.00
2023-04-17T11:53:17.600Z,100.00
2023-04-17T11:55:46.043Z,100.00
2023-04-17T11:58:15.623Z,100.00
2023-04-17T12:00:44.116Z,100.00
2023-04-17T12:03:35.117Z,100.00
2023-04-17T12:06:05.058Z,100.00
2023-04-17T12:08:43.476Z,100.00
2023-04-17T12:11:19.063Z,100.00
2023-04-17T12:13:48.946Z,99.54
2023-04-17T12:16:16.870Z,93.41
2023-04-17T12:18:45.944Z,90.14
2023-04-17T12:21:14.101Z,84.00
2023-04-17T12:23:42.323Z,80.57
2023-04-17T12:26:10.674Z,85.35
2023-04-17T12:28:38.916Z,92.65
2023-04-17T12:31:08.264Z,93.68
2023-04-17T12:33:36.375Z,95.47
2023-04-17T12:36:06.383Z,95.70
2023-04-17T12:38:35.085Z,96.55
2023-04-17T12:41:03.086Z,98.04
2023-04-17T12:43:33.115Z,96.61
2023-04-17T12:46:01.505Z,93.79
2023-04-17T12:48:32.835Z,91.20
2023-04-17T12:51:01.469Z,89.85
2023-04-17T12:53:30.261Z,93.31
2023-04-17T12:55:58.563Z,93.10
2023-04-17T12:58:26.793Z,92.12
2023-04-17T13:00:55.614Z,92.56
2023-04-17T13:03:23.953Z,86.41
2023-04-17T13:05:54.393Z,87.03
2023-04-17T13:08:22.288Z,88.19
2023-04-17T13:10:50.041Z,88.02
2023-04-17T13:13:17.893Z,85.53
2023-04-17T13:15:47.392Z,84.45
2023-04-17T13:18:15.643Z,83.91
2023-04-17T13:20:43.798Z,87.25
2023-04-17T13:23:14.389Z,89.10
2023-04-17T13:25:42.655Z,87.62
2023-04-17T13:28:10.475Z,88.14
2023-04-17T13:30:40.545Z,88.47
2023-04-17T13:33:08.694Z,87.62
2023-04-17T13:35:36.768Z,88.35
2023-04-17T13:38:05.000Z,88.66
2023-04-17T13:40:38.625Z,89.28
2023-04-17T13:43:07.126Z,89.56
2023-04-17T13:45:36.069Z,88.73
2023-04-17T13:48:04.623Z,89.73
2023-04-17T13:50:32.881Z,87.63
2023-04-17T13:53:01.879Z,88.64
2023-04-17T13:55:29.736Z,88.44
2023-04-17T13:57:59.426Z,87.98
2023-04-17T14:00:27.376Z,88.92
2023-04-17T14:02:55.301Z,88.05
2023-04-17T14:05:23.405Z,89.25
2023-04-17T14:07:51.358Z,88.80
2023-04-17T14:10:19.577Z,89.02
2023-04-17T14:12:47.926Z,89.90
2023-04-17T14:15:18.130Z,90.15
2023-04-17T14:17:46.593Z,91.28
2023-04-17T14:20:16.789Z,90.75
2023-04-17T14:22:44.741Z,90.19
2023-04-17T14:25:12.717Z,91.78
2023-04-17T14:27:41.005Z,90.24
2023-04-17T14:30:10.134Z,90.10
2023-04-17T14:32:39.832Z,90.17
2023-04-17T14:35:08.494Z,90.04
2023-04-17T14:37:36.568Z,91.24
2023-04-17T14:40:06.669Z,90.39
2023-04-17T14:42:43.800Z,89.97
2023-04-17T14:45:21.123Z,89.86
2023-04-17T14:47:51.104Z,88.85
2023-04-17T14:50:19.331Z,91.12
2023-04-17T14:52:47.312Z,88.00
2023-04-17T14:55:15.438Z,88.83
2023-04-17T14:57:43.444Z,85.85
2023-04-17T15:00:12.452Z,85.05
2023-04-17T15:02:40.329Z,87.29
2023-04-17T15:05:11.698Z,87.60
2023-04-17T15:07:39.878Z,83.82
2023-04-17T15:10:09.038Z,84.92
2023-04-17T15:12:37.091Z,84.23
2023-04-17T15:15:06.985Z,82.43
2023-04-17T15:17:37.180Z,84.26
2023-04-17T15:20:07.027Z,83.16
2023-04-17T15:22:36.598Z,84.01
2023-04-17T15:25:10.444Z,83.81
2023-04-17T15:27:38.827Z,84.74
2023-04-17T15:30:08.951Z,86.52
2023-04-17T15:32:37.426Z,83.79
2023-04-17T15:35:06.430Z,84.02
2023-04-17T15:37:34.482Z,81.21
2023-04-17T15:40:03.900Z,81.75
2023-04-17T15:42:32.405Z,80.80
2023-04-17T15:45:00.365Z,79.13
2023-04-17T15:47:28.412Z,80.63
2023-04-17T15:49:56.912Z,79.19
2023-04-17T15:52:25.473Z,80.62
2023-04-17T15:54:53.692Z,81.05
2023-04-17T15:57:23.830Z,82.42
2023-04-17T15:59:52.209Z,85.41
2023-04-17T16:02:20.424Z,84.08
2023-04-17T16:04:48.341Z,83.36
2023-04-17T16:07:17.336Z,85.37
2023-04-17T16:09:46.660Z,86.37
2023-04-17T16:12:14.913Z,86.17
2023-04-17T16:14:44.367Z,86.01
2023-04-17T16:17:12.256Z,87.15
2023-04-17T16:19:40.172Z,87.10
2023-04-17T16:22:08.029Z,87.79
2023-04-17T16:24:35.893Z,86.08
2023-04-17T16:27:04.277Z,85.81
2023-04-17T16:29:32.065Z,88.35
2023-04-17T16:32:01.520Z,87.77
2023-04-17T16:34:29.325Z,87.38
2023-04-17T16:36:57.161Z,86.37
2023-04-17T16:39:25.674Z,86.75
2023-04-17T16:41:53.646Z,88.06
2023-04-17T16:44:22.287Z,89.30
2023-04-17T16:49:22.079Z,88.92
2023-04-17T16:51:50.444Z,91.25
2023-04-17T16:54:19.999Z,91.57
2023-04-17T16:56:47.723Z,89.98
2023-04-17T16:59:15.814Z,92.46
2023-04-17T17:01:44.107Z,90.84
2023-04-17T17:04:12.155Z,89.86
2023-04-17T17:06:41.971Z,90.32
2023-04-17T17:09:10.381Z,91.66
2023-04-17T17:11:41.695Z,91.43
2023-04-17T17:14:09.958Z,91.45
2023-04-17T17:16:38.036Z,88.82
2023-04-17T17:19:06.307Z,89.79
2023-04-17T17:21:34.044Z,90.06
2023-04-17T17:24:03.919Z,91.19
2023-04-17T17:26:31.762Z,91.38
2023-04-17T17:28:59.718Z,91.92
2023-04-17T17:31:28.155Z,91.33
2023-04-17T17:33:58.646Z,90.79
2023-04-17T17:36:28.322Z,91.39
2023-04-17T17:38:56.630Z,92.36
2023-04-17T17:41:26.765Z,95.27
2023-04-17T17:43:56.121Z,94.04
2023-04-17T17:46:27.417Z,94.46
2023-04-17T17:48:55.435Z,95.25
2023-04-17T17:51:34.256Z,95.72
2023-04-17T17:54:02.714Z,96.00
2023-04-17T17:56:32.377Z,95.94
2023-04-17T17:59:00.378Z,97.83
2023-04-17T18:01:29.220Z,97.48
2023-04-17T18:03:58.151Z,96.51
2023-04-17T18:06:28.307Z,99.31
2023-04-17T18:08:57.863Z,99.29
2023-04-17T18:11:26.407Z,99.60
2023-04-17T18:13:55.972Z,99.05
2023-04-17T18:16:25.159Z,98.79
2023-04-17T18:18:53.941Z,100.00
2023-04-17T18:21:21.852Z,100.00
2023-04-17T18:23:49.901Z,100.00
2023-04-17T18:26:18.728Z,99.24
2023-04-17T18:28:46.600Z,98.79
2023-04-17T18:31:16.193Z,98.07
2023-04-17T18:33:44.302Z,100.00
2023-04-17T18:36:12.366Z,100.00
2023-04-17T18:38:40.222Z,100.00
2023-04-17T18:41:09.820Z,100.00
2023-04-17T18:43:39.923Z,100.00
2023-04-17T18:46:09.127Z,100.00
2023-04-17T18:48:39.912Z,100.00
2023-04-17T18:51:12.485Z,100.00
2023-04-17T18:53:40.587Z,100.00
2023-04-17T18:56:10.780Z,100.00
2023-04-17T18:58:40.377Z,100.00
2023-04-17T19:01:12.027Z,100.00
2023-04-17T19:03:42.435Z,100.00
2023-04-17T19:06:14.086Z,100.00
2023-04-17T19:08:42.594Z,100.00
2023-04-17T19:11:11.550Z,100.00
2023-04-17T19:13:42.628Z,100.00
2023-04-17T19:16:12.968Z,100.00
2023-04-17T19:18:45.296Z,100.00
2023-04-17T19:21:16.150Z,100.00
2023-04-17T19:23:47.155Z,100.00
2023-04-17T19:26:19.940Z,100.00
2023-04-17T19:28:49.215Z,100.00
2023-04-17T19:31:18.316Z,100.00
2023-04-17T19:33:49.430Z,100.00
2023-04-17T19:36:20.061Z,100.00
2023-04-17T19:38:48.636Z,100.00
2023-04-17T19:41:19.257Z,100.00
2023-04-17T19:43:49.966Z,100.00
2023-04-17T19:46:23.596Z,100.00
2023-04-17T19:48:55.035Z,100.00
2023-04-17T19:51:23.444Z,100.00
2023-04-17T19:53:53.403Z,100.00
2023-04-17T19:56:21.616Z,100.00
2023-04-17T19:58:49.932Z,100.00
2023-04-17T20:01:18.793Z,100.00
2023-04-17T20:03:47.768Z,100.00
2023-04-17T20:06:18.218Z,100.00
2023-04-17T20:08:46.976Z,100.00
2023-04-17T20:11:17.491Z,100.00
2023-04-17T20:13:45.769Z,100.00
2023-04-17T20:16:14.370Z,100.00
2023-04-17T20:18:43.659Z,100.00
2023-04-17T20:21:13.368Z,100.00
2023-04-17T20:23:43.843Z,100.00
2023-04-17T20:26:12.560Z,100.00
2023-04-17T20:28:41.586Z,100.00
2023-04-17T20:31:10.252Z,100.00
2023-04-17T20:33:38.636Z,100.00
2023-04-17T20:36:07.912Z,100.00
2023-04-17T20:38:36.011Z,100.00
2023-04-17T20:41:05.919Z,100.00
2023-04-17T20:43:35.120Z,99.61
2023-04-17T20:46:03.517Z,98.90
2023-04-17T20:48:31.894Z,97.27
2023-04-17T20:51:05.381Z,97.31
2023-04-17T20:53:34.990Z,96.51
2023-04-17T20:56:03.338Z,96.38
2023-04-17T20:58:33.152Z,97.26
2023-04-17T21:01:01.994Z,94.91
2023-04-17T21:03:31.897Z,94.25
2023-04-17T21:06:00.704Z,94.19
2023-04-17T21:08:29.976Z,92.84
2023-04-17T21:10:59.049Z,93.16
2023-04-17T21:13:27.862Z,91.14
2023-04-17T21:15:58.408Z,91.46
2023-04-17T21:18:26.668Z,89.88
2023-04-17T21:20:55.677Z,88.72
2023-04-17T21:23:25.339Z,89.34
2023-04-17T21:25:55.344Z,88.76
2023-04-17T21:28:23.743Z,90.33
2023-04-17T21:30:53.411Z,88.33
2023-04-17T21:33:23.334Z,89.20
2023-04-17T21:35:51.757Z,89.68
2023-04-17T21:38:20.461Z,89.29
2023-04-17T21:40:51.614Z,88.35
2023-04-17T21:43:20.504Z,87.82
2023-04-17T21:45:49.985Z,87.97
2023-04-17T21:48:18.307Z,87.95
2023-04-17T21:50:47.601Z,87.94
2023-04-17T21:53:15.855Z,87.64
2023-04-17T21:55:43.897Z,90.09
2023-04-17T21:58:11.915Z,89.03
2023-04-17T22:00:40.163Z,90.12
2023-04-17T22:03:08.081Z,91.31
2023-04-17T22:05:36.276Z,90.21
2023-04-17T22:08:06.182Z,90.80
2023-04-17T22:10:34.352Z,90.01
2023-04-17T22:13:02.206Z,89.12
2023-04-17T22:15:30.084Z,89.29
2023-04-17T22:17:58.939Z,88.43
2023-04-17T22:20:27.316Z,90.50
2023-04-17T22:22:55.893Z,89.91
2023-04-17T22:25:25.301Z,89.55
2023-04-17T22:27:53.289Z,89.93
2023-04-17T22:30:21.313Z,89.63
2023-04-17T22:32:50.071Z,89.67
2023-04-17T22:35:18.133Z,90.27
2023-04-17T22:37:46.082Z,90.50
2023-04-17T22:40:14.603Z,90.26
2023-04-17T22:42:44.662Z,90.65
2023-04-17T22:45:19.088Z,90.34
2023-04-17T22:47:46.988Z,90.46
2023-04-17T22:50:15.694Z,89.28
2023-04-17T22:52:44.144Z,89.26
2023-04-17T22:55:12.324Z,89.12
2023-04-17T22:57:40.724Z,90.41
2023-04-17T23:00:11.406Z,89.51
2023-04-17T23:02:39.288Z,90.24
2023-04-17T23:05:08.412Z,90.03
2023-04-17T23:07:36.299Z,90.60
2023-04-17T23:10:04.854Z,90.43
2023-04-17T23:12:32.713Z,90.16
2023-04-17T23:15:00.894Z,90.63
2023-04-17T23:17:31.048Z,91.72
2023-04-17T23:19:58.958Z,91.47
2023-04-17T23:22:27.211Z,91.34
2023-04-17T23:24:55.242Z,90.93
2023-04-17T23:27:23.131Z,90.17
2023-04-17T23:29:51.193Z,90.51
2023-04-17T23:32:19.568Z,91.49
2023-04-17T23:34:48.956Z,91.23
2023-04-17T23:37:16.705Z,90.35
2023-04-17T23:39:44.418Z,90.99
2023-04-17T23:42:12.224Z,90.67
2023-04-17T23:44:40.533Z,90.36
2023-04-17T23:47:08.956Z,90.20
2023-04-17T23:49:37.234Z,90.72
2023-04-17T23:52:06.450Z,91.28
2023-04-17T23:54:34.216Z,91.03
2023-04-17T23:57:02.111Z,89.91
2023-04-17T23:59:30.039Z,89.56
